Gilford, Michigan
Current Conditions -  °F | °C
As of 9:05 AM on Thursday 27 Nov 2014 (Local Time) from KCFS Reporting Station
Overcast Overcast  
Wind Chill: 20°   Ceiling: 1600
Heat Index: 28°   Visibility: 7mi
Dew Point: 25°   Wind: 9mph
Humidity: 86%   Direction: 280°W
Pressure: 30.12"   Gusts: NA
Location:  43.49°N, 83.62°W
Report Text: KCFS 271405Z AUTO 28008KT 7SM OVC016 M02/M04 A3012 RMK AO2
Loading
Personal Weather Stations






























Interactive Weather Map New forecast layout! Learn more

10-Day Weather Forecast

Advertisements
Track Severe Weather on mobile